Time;durP1;ratioP1;P1;durP2;ratioP2;P2;SDS_P1;SDS_P2;PMS_P1;PMS_P2;Temp;Humidity;BMP_temperature;BMP_pressure;BME280_temperature;BME280_humidity;BME280_pressure;Samples;Min_cycle;Max_cycle;Signal;HPM_P1;HPM_P2
2022/05/09 00:01:17;;;;;;;6.85;5.15;;;12.50;99.90;;;;;;5039630;28;20245;-76
2022/05/09 00:03:44;;;;;;;6.07;5.57;;;12.40;99.90;;;;;;5054384;28;20175;-76
2022/05/09 00:06:10;;;;;;;5.45;5.05;;;12.30;99.90;;;;;;5053668;28;20179;-77
2022/05/09 00:08:37;;;;;;;5.60;5.10;;;12.30;99.90;;;;;;5053818;28;20168;-76
2022/05/09 00:11:03;;;;;;;5.22;4.82;;;12.20;99.90;;;;;;5052071;28;20187;-77
2022/05/09 00:13:29;;;;;;;6.75;5.22;;;12.20;99.90;;;;;;5036581;28;20187;-77
2022/05/09 00:15:54;;;;;;;6.25;5.75;;;12.20;99.90;;;;;;5039241;28;20212;-77
2022/05/09 00:18:21;;;;;;;5.93;5.32;;;12.20;99.90;;;;;;5056499;28;20208;-77
2022/05/09 00:20:47;;;;;;;6.10;5.47;;;12.20;99.90;;;;;;5048982;28;20176;-78
2022/05/09 00:23:12;;;;;;;5.95;5.45;;;12.20;99.90;;;;;;5050130;28;20168;-77
2022/05/09 00:25:38;;;;;;;6.43;5.85;;;12.20;99.90;;;;;;5055531;28;20188;-77
2022/05/09 00:28:04;;;;;;;6.47;5.97;;;12.20;99.90;;;;;;5051575;28;20250;-77
2022/05/09 00:30:30;;;;;;;6.95;6.35;;;12.20;99.90;;;;;;5054980;28;20802;-77
2022/05/09 00:32:56;;;;;;;6.95;5.82;;;12.20;99.90;;;;;;5048513;28;20187;-76
2022/05/09 00:35:21;;;;;;;6.72;5.85;;;12.30;99.90;;;;;;5051551;28;20750;-77
2022/05/09 00:37:47;;;;;;;5.95;5.55;;;12.30;99.90;;;;;;5036494;28;20203;-77
2022/05/09 00:40:15;;;;;;;6.95;5.88;;;12.30;99.90;;;;;;5054277;28;20203;-76
2022/05/09 00:42:53;;;;;;;6.13;5.68;;;12.30;99.90;;;;;;5047620;28;20633;-78
2022/05/09 00:45:21;;;;;;;6.00;5.60;;;12.20;99.90;;;;;;5053226;28;20275;-77
2022/05/09 00:47:47;;;;;;;5.72;5.22;;;12.20;99.90;;;;;;5053023;28;20191;-77
2022/05/09 00:50:20;;;;;;;6.28;5.70;;;12.20;99.90;;;;;;5036726;28;20179;-77
2022/05/09 00:52:52;;;;;;;6.18;5.65;;;12.20;99.90;;;;;;5036898;28;20652;-77
2022/05/09 00:55:28;;;;;;;6.28;5.78;;;12.20;99.90;;;;;;5051070;28;20200;-77
2022/05/09 00:57:56;;;;;;;6.90;6.28;;;12.20;99.90;;;;;;5046713;28;20207;-77
2022/05/09 01:00:23;;;;;;;6.45;5.95;;;12.10;99.90;;;;;;5051351;28;20262;-76
2022/05/09 01:03:00;;;;;;;6.38;5.88;;;12.10;99.90;;;;;;5053075;28;20638;-76
2022/05/09 01:05:28;;;;;;;7.05;6.38;;;12.00;99.90;;;;;;5056655;28;20546;-79
2022/05/09 01:07:56;;;;;;;7.13;6.53;;;12.00;99.90;;;;;;5047074;28;20259;-77
2022/05/09 01:10:31;;;;;;;6.80;6.13;;;12.00;99.90;;;;;;5052952;28;20180;-77
2022/05/09 01:13:02;;;;;;;8.18;6.30;;;12.00;99.90;;;;;;5047766;28;20180;-77
2022/05/09 01:15:28;;;;;;;7.13;6.43;;;11.90;99.90;;;;;;5052076;28;20299;-77
2022/05/09 01:17:54;;;;;;;7.18;6.63;;;11.90;99.90;;;;;;5051539;28;20284;-77
2022/05/09 01:20:20;;;;;;;6.57;6.07;;;11.90;99.90;;;;;;5054143;28;20172;-77
2022/05/09 01:22:45;;;;;;;7.28;6.60;;;11.70;99.90;;;;;;5050473;28;20175;-76
2022/05/09 01:25:14;;;;;;;7.97;7.28;;;11.70;99.90;;;;;;5051383;28;20198;-77
2022/05/09 01:27:42;;;;;;;7.75;7.05;;;11.70;99.90;;;;;;5053595;28;20199;-77
2022/05/09 01:30:30;;;;;;;8.73;6.68;;;11.60;99.90;;;;;;5049990;28;20576;-77
2022/05/09 01:32:57;;;;;;;7.28;6.68;;;11.60;99.90;;;;;;5047199;28;20188;-76
2022/05/09 01:35:45;;;;;;;7.75;7.00;;;11.60;99.90;;;;;;5036852;28;20207;-80
2022/05/09 01:38:19;;;;;;;7.47;6.88;;;11.50;99.90;;;;;;5048954;28;20229;-77
2022/05/09 01:40:45;;;;;;;7.28;6.65;;;11.50;99.90;;;;;;5048106;28;20179;-78
2022/05/09 01:43:11;;;;;;;7.63;7.03;;;11.50;99.90;;;;;;5052662;28;20176;-77
2022/05/09 01:45:37;;;;;;;7.40;6.80;;;11.40;99.90;;;;;;5052074;28;20663;-77
2022/05/09 01:50:47;;;;;;;7.82;7.03;;;11.30;99.90;;;;;;5049889;28;20190;-77
2022/05/09 01:53:13;;;;;;;8.45;7.28;;;11.30;99.90;;;;;;5036089;28;20176;-77
2022/05/09 01:55:38;;;;;;;8.10;7.40;;;11.20;99.90;;;;;;5049017;28;20204;-77
2022/05/09 01:58:05;;;;;;;7.80;7.20;;;11.10;99.90;;;;;;5048955;28;20211;-77
2022/05/09 02:00:33;;;;;;;7.57;6.97;;;11.10;99.90;;;;;;5047578;28;20184;-77
2022/05/09 02:02:59;;;;;;;7.93;7.20;;;11.20;99.90;;;;;;5032092;28;20666;-77
2022/05/09 02:05:26;;;;;;;7.95;7.25;;;11.10;99.90;;;;;;5048680;28;20172;-77
2022/05/09 02:07:52;;;;;;;7.72;7.13;;;11.00;99.90;;;;;;5044985;28;20223;-77
2022/05/09 02:10:18;;;;;;;7.90;7.20;;;10.90;99.90;;;;;;5053955;28;20172;-76
2022/05/09 02:12:44;;;;;;;7.57;6.97;;;10.80;99.90;;;;;;5033726;28;20597;-77
2022/05/09 02:15:10;;;;;;;7.82;7.18;;;10.80;99.90;;;;;;5050019;28;20203;-77
2022/05/09 02:17:36;;;;;;;8.27;7.47;;;10.80;99.90;;;;;;5054586;28;20194;-77
2022/05/09 02:20:03;;;;;;;8.07;7.13;;;10.80;99.90;;;;;;5048539;28;20181;-77
2022/05/09 02:22:29;;;;;;;8.10;7.50;;;10.80;99.90;;;;;;5042364;28;20271;-77
2022/05/09 02:24:54;;;;;;;7.55;7.05;;;10.70;99.90;;;;;;5045809;28;20271;-77
2022/05/09 02:27:20;;;;;;;7.28;6.70;;;10.70;99.90;;;;;;5053597;28;20291;-77
2022/05/09 02:29:46;;;;;;;8.07;7.38;;;10.70;99.90;;;;;;5051150;28;20175;-77
2022/05/09 02:32:13;;;;;;;7.68;6.97;;;10.70;99.90;;;;;;5046675;28;20207;-77
2022/05/09 02:34:38;;;;;;;8.00;7.32;;;10.70;99.90;;;;;;5045617;28;20192;-77
2022/05/09 02:37:04;;;;;;;8.23;7.60;;;10.70;99.90;;;;;;5049856;28;20197;-77
2022/05/09 02:39:30;;;;;;;7.60;6.95;;;10.80;99.90;;;;;;5052615;28;20172;-77
2022/05/09 02:41:57;;;;;;;7.65;7.03;;;10.80;99.90;;;;;;5047520;28;20670;-78
2022/05/09 02:44:22;;;;;;;7.63;7.03;;;10.70;99.90;;;;;;5049968;28;20211;-77
2022/05/09 02:46:48;;;;;;;8.43;7.70;;;10.50;99.90;;;;;;5035537;28;20752;-77
2022/05/09 02:49:13;;;;;;;7.78;7.18;;;10.50;99.90;;;;;;5050599;28;20180;-77
2022/05/09 02:51:39;;;;;;;8.10;7.30;;;10.50;99.90;;;;;;5051170;28;20182;-77
2022/05/09 02:54:05;;;;;;;7.72;7.13;;;10.50;99.90;;;;;;5047042;28;20200;-77
2022/05/09 02:56:31;;;;;;;8.57;7.88;;;10.50;99.90;;;;;;5052314;28;20198;-77
2022/05/09 02:58:56;;;;;;;9.05;7.13;;;10.60;99.90;;;;;;5052220;28;20293;-76
2022/05/09 03:01:22;;;;;;;8.55;7.95;;;10.60;99.90;;;;;;5046614;28;20192;-77
2022/05/09 03:06:32;;;;;;;8.80;7.40;;;10.80;99.90;;;;;;5047109;28;20784;-77
2022/05/09 03:08:58;;;;;;;8.52;7.60;;;10.80;99.90;;;;;;5051826;28;20262;-77
2022/05/09 03:11:23;;;;;;;7.85;7.15;;;10.80;99.90;;;;;;5049677;28;20172;-77
2022/05/09 03:13:49;;;;;;;7.80;7.20;;;10.70;99.90;;;;;;5028690;28;20199;-78
2022/05/09 03:16:15;;;;;;;8.40;7.70;;;10.60;99.90;;;;;;5047286;28;20183;-77
2022/05/09 03:18:40;;;;;;;9.05;8.15;;;10.50;99.90;;;;;;5051330;28;20248;-77
2022/05/09 03:21:06;;;;;;;8.15;7.45;;;10.50;99.90;;;;;;5046608;28;20176;-77
2022/05/09 03:23:32;;;;;;;9.10;8.20;;;10.40;99.90;;;;;;5048045;28;20187;-77
2022/05/09 03:25:58;;;;;;;8.85;8.13;;;10.40;99.90;;;;;;5032379;28;20181;-77
2022/05/09 03:28:24;;;;;;;8.73;8.02;;;10.40;99.90;;;;;;5047499;28;20188;-77
2022/05/09 03:30:52;;;;;;;8.55;7.85;;;10.30;99.90;;;;;;5046943;28;20694;-77
2022/05/09 03:33:24;;;;;;;9.55;8.65;;;10.30;99.90;;;;;;5052555;28;20179;-76
2022/05/09 03:35:50;;;;;;;8.40;7.60;;;10.30;99.90;;;;;;5045962;28;20200;-77
2022/05/09 03:38:16;;;;;;;9.07;8.30;;;10.30;99.90;;;;;;5050427;28;20274;-77
2022/05/09 03:40:41;;;;;;;9.43;8.63;;;10.30;99.90;;;;;;5046901;28;20210;-77
2022/05/09 03:43:07;;;;;;;9.15;8.27;;;10.30;99.90;;;;;;5052481;28;20486;-77
2022/05/09 03:45:34;;;;;;;8.95;8.20;;;10.20;99.90;;;;;;5052194;28;20175;-77
2022/05/09 03:47:59;;;;;;;9.73;8.93;;;10.30;99.90;;;;;;5052337;28;20570;-77
2022/05/09 03:50:28;;;;;;;9.57;8.68;;;10.20;99.90;;;;;;5036598;28;20187;-77
2022/05/09 03:52:54;;;;;;;9.55;8.57;;;10.20;99.90;;;;;;5041873;28;20267;-79
2022/05/09 03:55:19;;;;;;;9.18;8.48;;;10.20;99.90;;;;;;5029483;28;20286;-77
2022/05/09 03:57:52;;;;;;;8.73;7.90;;;10.10;99.90;;;;;;5056620;28;20690;-77
2022/05/09 04:00:20;;;;;;;9.70;8.35;;;10.10;99.90;;;;;;5052342;28;20172;-78
2022/05/09 04:02:46;;;;;;;8.68;7.88;;;10.00;99.90;;;;;;5039983;28;20172;-77
2022/05/09 04:05:16;;;;;;;9.23;8.43;;;10.10;99.90;;;;;;5056726;28;20514;-77
2022/05/09 04:07:50;;;;;;;9.93;9.13;;;10.10;99.90;;;;;;5057425;28;20188;-77
2022/05/09 04:10:19;;;;;;;10.23;9.18;;;10.00;99.90;;;;;;5050023;28;20187;-77
2022/05/09 04:12:45;;;;;;;9.55;8.65;;;10.10;99.90;;;;;;5055919;28;20179;-77
2022/05/09 04:17:55;;;;;;;10.48;9.48;;;10.20;99.90;;;;;;5056624;28;20198;-77
2022/05/09 04:20:23;;;;;;;9.75;8.48;;;10.20;99.90;;;;;;5052299;28;20178;-76
2022/05/09 04:22:49;;;;;;;10.50;9.55;;;10.20;99.90;;;;;;5055254;28;20271;-78
2022/05/09 04:25:15;;;;;;;9.70;8.95;;;10.20;99.90;;;;;;5036329;28;20180;-77
2022/05/09 04:27:41;;;;;;;9.52;8.82;;;10.20;99.90;;;;;;5053690;28;20199;-77
2022/05/09 04:30:08;;;;;;;10.20;9.27;;;10.30;99.90;;;;;;5055506;28;20237;-77
2022/05/09 04:32:35;;;;;;;10.25;9.32;;;10.30;99.90;;;;;;5056256;28;20186;-77
2022/05/09 04:35:01;;;;;;;9.93;9.05;;;10.40;99.90;;;;;;5053265;28;20200;-77
2022/05/09 04:37:26;;;;;;;10.00;9.10;;;10.40;99.90;;;;;;5054752;28;20200;-77
2022/05/09 04:39:54;;;;;;;11.23;10.23;;;10.50;99.90;;;;;;5055164;28;20202;-77
2022/05/09 04:42:20;;;;;;;9.57;8.63;;;10.60;99.90;;;;;;5052029;28;20600;-77
2022/05/09 04:44:46;;;;;;;9.63;8.80;;;10.70;99.90;;;;;;5056616;28;20183;-77
2022/05/09 04:47:13;;;;;;;9.70;8.90;;;10.80;99.90;;;;;;5054920;28;20278;-77
2022/05/09 04:49:39;;;;;;;9.75;8.90;;;10.90;99.90;;;;;;5034593;28;20180;-77
2022/05/09 04:52:05;;;;;;;9.65;8.85;;;11.00;99.90;;;;;;5037527;28;20270;-77
2022/05/09 04:54:31;;;;;;;9.30;8.50;;;11.10;99.90;;;;;;5039833;28;20204;-77
2022/05/09 04:56:57;;;;;;;10.02;9.13;;;11.20;99.90;;;;;;5052600;28;20400;-77
2022/05/09 04:59:22;;;;;;;9.88;8.73;;;11.30;99.90;;;;;;5052996;28;20258;-77
2022/05/09 05:01:48;;;;;;;10.32;9.43;;;11.30;99.90;;;;;;5056312;28;20171;-78
2022/05/09 05:04:16;;;;;;;9.75;9.05;;;11.40;99.90;;;;;;5055818;28;20226;-76
2022/05/09 05:06:41;;;;;;;9.93;9.02;;;11.50;99.90;;;;;;5050883;28;20199;-77
2022/05/09 05:09:07;;;;;;;11.65;10.65;;;11.50;99.90;;;;;;5055783;28;20187;-77
2022/05/09 05:11:33;;;;;;;11.13;10.07;;;11.60;99.90;;;;;;5056359;28;20180;-77
2022/05/09 05:13:58;;;;;;;11.02;10.05;;;11.60;99.90;;;;;;5056559;28;20179;-77
2022/05/09 05:16:59;;;;;;;11.45;10.35;;;11.80;99.90;;;;;;5054658;28;20230;-77
2022/05/09 05:19:09;;;;;;;9.85;9.05;;;11.80;99.90;;;;;;5055717;28;20283;-77
2022/05/09 05:21:35;;;;;;;10.00;9.13;;;11.90;99.90;;;;;;5053410;28;20207;-77
2022/05/09 05:24:00;;;;;;;9.68;8.85;;;12.00;99.90;;;;;;5055133;28;20188;-78
2022/05/09 05:26:26;;;;;;;9.95;9.02;;;12.10;99.90;;;;;;5056641;28;20198;-77
2022/05/09 05:28:52;;;;;;;10.07;9.15;;;12.20;99.90;;;;;;5056438;28;20184;-77
2022/05/09 05:31:21;;;;;;;10.70;9.60;;;12.30;99.90;;;;;;5058059;28;20183;-77
2022/05/09 05:33:47;;;;;;;9.85;9.05;;;12.40;99.90;;;;;;5039142;28;20261;-77
2022/05/09 05:36:14;;;;;;;9.05;8.27;;;12.60;99.90;;;;;;5056790;28;20253;-76
2022/05/09 05:38:39;;;;;;;9.82;8.85;;;12.60;99.90;;;;;;5056494;28;20218;-77
2022/05/09 05:41:05;;;;;;;9.93;8.25;;;12.80;99.90;;;;;;5051047;28;20247;-77
2022/05/09 05:43:31;;;;;;;9.13;8.32;;;12.90;99.90;;;;;;5052194;28;20227;-77
2022/05/09 05:46:00;;;;;;;9.00;8.23;;;13.00;99.90;;;;;;5053168;28;20261;-77
2022/05/09 05:48:26;;;;;;;9.63;8.82;;;13.20;99.90;;;;;;5055946;28;20258;-78
2022/05/09 05:50:54;;;;;;;9.90;9.00;;;13.30;99.90;;;;;;5034922;28;20210;-77
2022/05/09 05:53:34;;;;;;;8.80;8.07;;;13.40;99.90;;;;;;5056455;28;20238;-77
2022/05/09 05:56:01;;;;;;;8.23;7.53;;;13.40;99.90;;;;;;5055171;28;20215;-76
2022/05/09 05:58:28;;;;;;;8.98;8.18;;;13.60;99.90;;;;;;5055177;28;20192;-77
2022/05/09 06:00:55;;;;;;;8.90;8.10;;;13.60;99.90;;;;;;5050183;28;20690;-77
2022/05/09 06:03:21;;;;;;;8.63;7.95;;;13.80;99.90;;;;;;5055005;28;20176;-77
2022/05/09 06:05:47;;;;;;;8.02;7.40;;;13.90;99.90;;;;;;5053185;28;20213;-77
2022/05/09 06:08:13;;;;;;;8.10;7.50;;;13.90;99.90;;;;;;5055256;28;20200;-79
2022/05/09 06:10:39;;;;;;;9.23;8.32;;;13.90;99.90;;;;;;5038965;28;20221;-78
2022/05/09 06:13:06;;;;;;;8.45;7.72;;;14.00;99.90;;;;;;5056439;28;20529;-77
2022/05/09 06:15:32;;;;;;;7.68;7.07;;;14.20;99.90;;;;;;5053995;28;20203;-77
2022/05/09 06:18:00;;;;;;;8.25;7.63;;;14.30;99.90;;;;;;5036108;28;20196;-77
2022/05/09 06:20:28;;;;;;;8.35;7.68;;;14.40;99.90;;;;;;5052052;28;20712;-77
2022/05/09 06:22:55;;;;;;;8.82;7.78;;;14.50;99.90;;;;;;5053374;28;20176;-77
2022/05/09 06:25:21;;;;;;;8.48;7.72;;;14.60;99.90;;;;;;5046341;28;20235;-77
2022/05/09 06:27:48;;;;;;;8.15;7.55;;;14.70;99.90;;;;;;5052364;28;20207;-76
2022/05/09 06:30:16;;;;;;;8.65;7.50;;;14.80;99.90;;;;;;5051498;28;20598;-77
2022/05/09 06:32:42;;;;;;;6.28;5.68;;;15.00;99.90;;;;;;5035469;28;20274;-77
2022/05/09 06:35:14;;;;;;;7.57;6.85;;;15.10;99.90;;;;;;5049022;28;20208;-77
2022/05/09 06:37:40;;;;;;;7.13;6.53;;;15.20;99.90;;;;;;5050029;28;20199;-77
2022/05/09 06:40:08;;;;;;;8.75;7.10;;;15.40;99.90;;;;;;5050751;28;20184;-76
2022/05/09 06:42:35;;;;;;;8.18;6.60;;;15.50;99.90;;;;;;5036092;28;20178;-77
2022/05/09 06:45:00;;;;;;;7.15;6.65;;;15.60;99.90;;;;;;5035780;28;20188;-77
2022/05/09 06:47:26;;;;;;;7.78;7.07;;;15.80;99.90;;;;;;5054139;28;20206;-77
2022/05/09 06:49:52;;;;;;;6.63;6.07;;;15.90;99.90;;;;;;5051915;28;20204;-76
2022/05/09 06:52:18;;;;;;;7.43;6.05;;;16.00;99.90;;;;;;5051851;28;20266;-76
2022/05/09 06:54:43;;;;;;;7.10;6.50;;;16.10;99.90;;;;;;5050742;28;20290;-76
2022/05/09 06:57:09;;;;;;;6.97;6.30;;;16.20;99.90;;;;;;5035771;28;20307;-77
2022/05/09 06:59:35;;;;;;;7.00;6.40;;;16.30;99.90;;;;;;5052715;28;20189;-77
2022/05/09 07:02:01;;;;;;;7.60;6.90;;;16.40;99.90;;;;;;5048018;28;20270;-77
2022/05/09 07:04:27;;;;;;;7.45;6.85;;;16.40;99.90;;;;;;5047002;28;20674;-77
2022/05/09 07:06:53;;;;;;;9.63;6.78;;;16.30;99.90;;;;;;5052566;28;20204;-77
2022/05/09 07:09:19;;;;;;;6.30;5.80;;;16.50;99.90;;;;;;5053354;28;20187;-77
2022/05/09 07:11:45;;;;;;;7.53;6.45;;;16.60;99.90;;;;;;5048619;28;20180;-77
2022/05/09 07:14:11;;;;;;;7.13;6.53;;;16.70;99.90;;;;;;5052180;28;20210;-77
2022/05/09 07:16:37;;;;;;;6.65;6.05;;;16.80;99.90;;;;;;5052179;28;20196;-77
2022/05/09 07:19:07;;;;;;;6.75;5.95;;;16.90;99.90;;;;;;5052922;28;20172;-76
2022/05/09 07:21:33;;;;;;;6.45;5.95;;;17.00;99.90;;;;;;5052195;28;20168;-76
2022/05/09 07:23:59;;;;;;;6.20;5.78;;;17.10;99.90;;;;;;5051487;28;20233;-76
2022/05/09 07:26:25;;;;;;;6.13;5.70;;;17.30;99.90;;;;;;5057156;28;20202;-77
2022/05/09 07:28:51;;;;;;;6.85;6.35;;;17.50;99.90;;;;;;5058058;28;20179;-77
2022/05/09 07:31:17;;;;;;;6.75;6.25;;;17.60;99.90;;;;;;5053873;28;20183;-77
2022/05/09 07:33:43;;;;;;;6.38;5.78;;;17.70;99.90;;;;;;5049556;28;20275;-76
2022/05/09 07:36:12;;;;;;;7.68;6.35;;;17.70;99.90;;;;;;5057234;28;20196;-78
2022/05/09 07:38:37;;;;;;;5.55;5.22;;;17.90;99.90;;;;;;5053622;28;20626;-78
2022/05/09 07:41:03;;;;;;;8.80;5.80;;;18.00;99.90;;;;;;5051639;28;20213;-77
2022/05/09 07:43:30;;;;;;;8.85;5.60;;;18.20;99.90;;;;;;5054219;28;20199;-77
2022/05/09 07:45:56;;;;;;;6.00;5.50;;;18.20;99.90;;;;;;5057772;28;20175;-76
2022/05/09 07:48:24;;;;;;;5.35;4.95;;;18.30;99.90;;;;;;5054089;28;20296;-77
2022/05/09 07:50:50;;;;;;;4.88;4.43;;;18.40;99.90;;;;;;5052603;28;20171;-76
2022/05/09 07:53:26;;;;;;;5.88;5.38;;;18.60;99.90;;;;;;5053333;28;20587;-77
2022/05/09 07:55:52;;;;;;;6.10;4.88;;;18.70;99.90;;;;;;5054919;28;20191;-77
2022/05/09 07:58:19;;;;;;;4.88;4.38;;;18.80;99.90;;;;;;5057172;28;20218;-77
2022/05/09 08:00:45;;;;;;;5.10;4.68;;;18.90;99.90;;;;;;5054548;28;20168;-77
2022/05/09 08:03:16;;;;;;;4.80;4.40;;;19.10;99.90;;;;;;5054598;28;20192;-77
2022/05/09 08:05:41;;;;;;;4.93;4.43;;;19.10;99.90;;;;;;5057074;28;20237;-78
2022/05/09 08:08:07;;;;;;;7.40;4.85;;;19.20;99.90;;;;;;5054086;28;20199;-77
2022/05/09 08:10:33;;;;;;;6.85;4.97;;;19.30;99.90;;;;;;5039874;28;20176;-78
2022/05/09 08:12:58;;;;;;;5.28;4.22;;;19.40;99.90;;;;;;5048620;28;20276;-77
2022/05/09 08:15:26;;;;;;;5.25;4.75;;;19.50;99.90;;;;;;5056606;28;20196;-77
2022/05/09 08:17:52;;;;;;;4.90;4.50;;;19.60;99.90;;;;;;5054657;28;20259;-77
2022/05/09 08:20:19;;;;;;;4.95;4.00;;;19.50;99.90;;;;;;5053896;28;20187;-78
2022/05/09 08:22:46;;;;;;;4.70;4.30;;;19.70;99.90;;;;;;5053582;28;20202;-77
2022/05/09 08:25:13;;;;;;;4.28;3.95;;;19.80;99.90;;;;;;5056100;28;20233;-77
2022/05/09 08:27:40;;;;;;;4.10;3.70;;;20.00;99.90;;;;;;5053085;28;20207;-77
2022/05/09 08:30:06;;;;;;;4.05;3.75;;;20.10;99.90;;;;;;5052991;28;20566;-78
2022/05/09 08:32:34;;;;;;;4.35;3.53;;;20.00;99.90;;;;;;5054003;28;20168;-77
2022/05/09 08:35:00;;;;;;;4.07;3.67;;;20.00;99.90;;;;;;5055239;28;20214;-77
2022/05/09 08:37:25;;;;;;;3.33;3.13;;;20.10;99.90;;;;;;5053651;28;20192;-77
2022/05/09 08:39:51;;;;;;;4.28;3.88;;;20.20;99.90;;;;;;5050855;28;20176;-77
2022/05/09 08:42:33;;;;;;;4.25;3.22;;;20.40;99.90;;;;;;5053876;28;20583;-78
2022/05/09 08:45:10;;;;;;;3.83;3.42;;;20.50;99.90;;;;;;5055378;28;20184;-78
2022/05/09 08:47:51;;;;;;;3.80;3.50;;;20.50;99.90;;;;;;5053719;28;20681;-77
2022/05/09 08:50:17;;;;;;;4.10;3.80;;;20.70;99.90;;;;;;5038529;28;20202;-77
2022/05/09 08:53:00;;;;;;;3.90;3.60;;;20.80;99.90;;;;;;5040461;28;20172;-77
2022/05/09 08:55:40;;;;;;;3.97;3.67;;;20.90;99.90;;;;;;5051367;28;20204;-76
2022/05/09 08:58:40;;;;;;;3.80;3.50;;;21.10;99.90;;;;;;5056062;28;20216;-78
2022/05/09 09:01:12;;;;;;;3.45;3.20;;;21.10;99.90;;;;;;5052061;28;20191;-77
2022/05/09 09:03:43;;;;;;;3.80;3.50;;;21.30;99.90;;;;;;5055251;28;20488;-79
2022/05/09 09:06:11;;;;;;;3.88;3.67;;;21.50;99.90;;;;;;5055451;28;20176;-77
2022/05/09 09:08:57;;;;;;;5.28;4.03;;;21.60;99.90;;;;;;5053010;28;20180;-77
2022/05/09 09:11:51;;;;;;;3.58;3.25;;;21.90;99.90;;;;;;5031969;28;20177;-77
2022/05/09 09:14:35;;;;;;;3.72;3.47;;;22.10;99.90;;;;;;5051349;28;20212;-77
2022/05/09 09:17:26;;;;;;;3.83;3.47;;;22.40;99.90;;;;;;5054823;28;20203;-77
2022/05/09 09:20:19;;;;;;;4.30;3.53;;;22.70;99.90;;;;;;5054283;28;20172;-78
2022/05/09 09:23:15;;;;;;;4.35;4.03;;;23.80;99.90;;;;;;5051742;28;20184;-78
2022/05/09 09:25:48;;;;;;;4.22;3.78;;;26.10;99.90;;;;;;5055801;28;20184;-78
2022/05/09 09:28:25;;;;;;;7.20;4.07;;;28.10;92.70;;;;;;5053271;28;20279;-78
2022/05/09 09:30:51;;;;;;;4.10;3.80;;;30.00;82.00;;;;;;5048505;28;20179;-77
2022/05/09 09:33:19;;;;;;;3.55;3.35;;;31.50;71.90;;;;;;5054152;28;20229;-75
2022/05/09 09:36:05;;;;;;;4.32;3.92;;;32.60;62.90;;;;;;5049957;28;20628;-75
2022/05/09 09:38:42;;;;;;;9.02;3.80;;;33.50;58.00;;;;;;5048804;28;20190;-75
2022/05/09 09:41:15;;;;;;;3.90;3.70;;;34.10;56.00;;;;;;5049932;28;20168;-76
2022/05/09 09:43:40;;;;;;;4.20;3.90;;;34.60;53.30;;;;;;5035430;28;20175;-76
2022/05/09 09:46:07;;;;;;;4.13;3.53;;;35.50;52.00;;;;;;5043552;28;20642;-76
2022/05/09 09:48:34;;;;;;;4.43;4.13;;;36.00;49.30;;;;;;5049319;28;20182;-76
2022/05/09 09:51:10;;;;;;;3.75;3.45;;;35.70;47.50;;;;;;5051037;28;20179;-73
2022/05/09 09:53:59;;;;;;;4.10;3.80;;;35.10;49.50;;;;;;5035115;28;20641;-73
2022/05/09 09:56:27;;;;;;;3.65;3.40;;;35.90;50.10;;;;;;5051528;28;20217;-74
2022/05/09 09:59:23;;;;;;;4.40;4.00;;;36.20;46.60;;;;;;5050124;28;20509;-73
2022/05/09 10:02:12;;;;;;;3.78;3.47;;;36.40;47.20;;;;;;5040752;28;20171;-74
2022/05/09 10:04:37;;;;;;;3.97;3.67;;;36.60;46.20;;;;;;5050064;28;20175;-72
2022/05/09 10:07:14;;;;;;;5.07;3.30;;;37.20;45.90;;;;;;5051734;28;20249;-74
2022/05/09 10:09:44;;;;;;;5.22;3.60;;;37.40;44.40;;;;;;5034684;28;20174;-74
2022/05/09 10:12:20;;;;;;;3.88;3.67;;;38.30;44.70;;;;;;5031974;28;20187;-74
2022/05/09 10:14:46;;;;;;;3.35;3.15;;;38.20;42.60;;;;;;5047426;28;20771;-74
2022/05/09 10:17:33;;;;;;;3.33;3.13;;;38.40;43.30;;;;;;5042124;28;20657;-74
2022/05/09 10:20:18;;;;;;;4.32;3.35;;;38.80;43.80;;;;;;5031977;28;20657;-74
2022/05/09 10:25:30;;;;;;;3.50;3.20;;;39.20;42.20;;;;;;5049808;28;20293;-74
2022/05/09 10:28:20;;;;;;;3.10;2.90;;;37.40;42.30;;;;;;5047015;28;20217;-75
2022/05/09 10:30:49;;;;;;;3.33;3.08;;;36.60;45.20;;;;;;5046187;28;20179;-74
2022/05/09 10:33:25;;;;;;;4.00;3.60;;;36.90;42.70;;;;;;5042931;28;20251;-74
2022/05/09 10:35:53;;;;;;;3.38;3.17;;;37.90;41.60;;;;;;5035301;28;20201;-74
2022/05/09 10:38:25;;;;;;;3.65;3.40;;;38.90;41.50;;;;;;5049660;28;20240;-74
2022/05/09 10:40:55;;;;;;;4.18;3.70;;;39.00;39.60;;;;;;5046210;28;20198;-73
2022/05/09 10:43:35;;;;;;;4.68;3.63;;;39.10;40.20;;;;;;5052442;28;20177;-74
2022/05/09 10:46:11;;;;;;;3.70;3.40;;;39.70;40.40;;;;;;5051841;28;20201;-74
2022/05/09 10:49:00;;;;;;;3.50;2.75;;;40.30;40.20;;;;;;5030173;28;20203;-75
2022/05/09 10:51:35;;;;;;;3.60;3.40;;;40.20;39.30;;;;;;5049754;28;20175;-74
2022/05/09 10:54:15;;;;;;;3.60;3.30;;;40.80;38.20;;;;;;5050315;28;20282;-73
2022/05/09 10:56:58;;;;;;;3.42;3.22;;;40.30;38.30;;;;;;5050566;28;20229;-74
2022/05/09 10:59:29;;;;;;;3.47;3.28;;;41.50;36.60;;;;;;5036083;28;20281;-74
2022/05/09 11:02:07;;;;;;;3.88;3.58;;;41.60;37.90;;;;;;5030359;28;20181;-73
2022/05/09 11:04:35;;;;;;;3.85;3.55;;;41.50;37.60;;;;;;5037076;28;20700;-75
2022/05/09 11:07:23;;;;;;;3.85;3.55;;;41.50;36.90;;;;;;5032567;28;20215;-75
2022/05/09 11:10:26;;;;;;;3.40;3.20;;;40.50;37.00;;;;;;5036900;28;20254;-74
2022/05/09 11:13:06;;;;;;;3.60;3.22;;;40.20;37.40;;;;;;5036037;28;20266;-74
2022/05/09 11:15:57;;;;;;;3.63;3.28;;;40.50;37.90;;;;;;5034786;28;20219;-74
2022/05/09 11:18:35;;;;;;;3.97;3.55;;;40.30;37.10;;;;;;5033922;28;20199;-74
2022/05/09 11:21:39;;;;;;;4.28;3.88;;;38.90;38.10;;;;;;5033078;28;20188;-74
2022/05/09 11:24:22;;;;;;;3.40;3.20;;;38.00;40.30;;;;;;5014581;28;20604;-75
2022/05/09 11:26:57;;;;;;;4.03;3.63;;;38.90;40.40;;;;;;5034393;28;20245;-74
2022/05/09 11:29:39;;;;;;;3.50;3.10;;;40.00;38.10;;;;;;5034941;28;20646;-73
2022/05/09 11:32:16;;;;;;;4.50;2.72;;;40.70;37.70;;;;;;5027943;28;20237;-74
2022/05/09 11:35:04;;;;;;;3.22;2.92;;;41.00;37.40;;;;;;5035022;28;20206;-74
2022/05/09 11:37:53;;;;;;;3.30;3.10;;;40.40;36.00;;;;;;5032555;28;20201;-73
2022/05/09 11:40:34;;;;;;;3.40;3.10;;;41.00;36.10;;;;;;5032799;28;20727;-75
2022/05/09 11:43:32;;;;;;;3.42;3.13;;;40.60;37.30;;;;;;5032798;28;20211;-74
2022/05/09 11:45:58;;;;;;;3.70;3.35;;;40.70;37.70;;;;;;5030306;28;20176;-74
2022/05/09 11:48:57;;;;;;;3.78;3.47;;;40.70;37.30;;;;;;5031183;28;20564;-74
2022/05/09 11:51:51;;;;;;;3.65;3.35;;;40.40;37.40;;;;;;5031619;28;20183;-74
2022/05/09 11:54:16;;;;;;;2.78;2.63;;;40.60;37.80;;;;;;5030548;28;20263;-74
2022/05/09 11:56:46;;;;;;;3.50;3.03;;;40.40;37.20;;;;;;5017082;28;20319;-74
2022/05/09 11:59:20;;;;;;;3.30;3.00;;;40.50;37.20;;;;;;5033288;28;20180;-75
2022/05/09 12:02:05;;;;;;;3.50;3.20;;;39.20;38.30;;;;;;5035597;28;20203;-74
2022/05/09 12:04:46;;;;;;;4.00;3.70;;;37.70;39.70;;;;;;5028873;28;20178;-74
2022/05/09 12:07:23;;;;;;;4.53;3.25;;;36.30;42.20;;;;;;5033847;28;20227;-74
2022/05/09 12:10:03;;;;;;;4.53;3.13;;;35.30;42.90;;;;;;5033341;28;20577;-74
2022/05/09 12:12:38;;;;;;;4.07;3.08;;;34.60;44.10;;;;;;5031847;28;20186;-75
2022/05/09 12:15:09;;;;;;;4.30;3.05;;;34.50;43.90;;;;;;5028321;28;20210;-73
2022/05/09 12:17:36;;;;;;;3.08;2.72;;;33.50;44.70;;;;;;5036364;28;20206;-74
2022/05/09 12:20:07;;;;;;;2.58;2.47;;;32.80;45.70;;;;;;5032008;28;20235;-74
2022/05/09 12:22:52;;;;;;;3.17;2.92;;;31.70;45.20;;;;;;5032115;28;20547;-74
2022/05/09 12:25:36;;;;;;;2.60;2.38;;;30.50;47.70;;;;;;5029729;28;20576;-73
2022/05/09 12:28:16;;;;;;;4.05;2.30;;;29.60;48.00;;;;;;5035558;28;20651;-74
2022/05/09 12:30:52;;;;;;;3.03;2.72;;;28.80;49.10;;;;;;5027905;28;20206;-73
2022/05/09 12:33:41;;;;;;;5.40;3.08;;;28.20;50.60;;;;;;5029639;28;20188;-74
2022/05/09 12:36:08;;;;;;;3.47;3.22;;;27.60;52.20;;;;;;5034163;28;20208;-74
2022/05/09 12:38:43;;;;;;;4.53;3.35;;;26.90;54.30;;;;;;5035831;28;20185;-74
2022/05/09 12:41:28;;;;;;;4.03;3.83;;;26.20;58.90;;;;;;5033035;28;20184;-73
2022/05/09 12:43:58;;;;;;;4.43;3.38;;;25.60;62.10;;;;;;5034333;28;20223;-76
2022/05/09 12:46:33;;;;;;;5.35;3.58;;;25.20;64.10;;;;;;5031717;28;20188;-76
2022/05/09 12:49:02;;;;;;;5.88;3.35;;;25.00;68.10;;;;;;5011974;28;20191;-76
2022/05/09 12:51:30;;;;;;;4.47;3.63;;;24.90;69.80;;;;;;5017397;28;20613;-76
2022/05/09 12:53:57;;;;;;;6.85;3.20;;;25.00;69.40;;;;;;5029500;28;20520;-76
2022/05/09 12:56:27;;;;;;;4.20;3.10;;;25.00;69.60;;;;;;5034290;28;20200;-74
2022/05/09 12:59:08;;;;;;;10.10;3.20;;;25.20;67.40;;;;;;5050540;28;20187;-76
2022/05/09 13:01:34;;;;;;;4.25;2.60;;;25.50;68.50;;;;;;5052043;28;20179;-76
2022/05/09 13:04:06;;;;;;;5.43;2.53;;;26.00;65.60;;;;;;5050812;28;20549;-75
2022/05/09 13:06:40;;;;;;;3.70;2.72;;;28.40;62.00;;;;;;5046529;28;20191;-76
2022/05/09 13:09:21;;;;;;;3.17;2.28;;;32.50;54.80;;;;;;5049332;28;20190;-74
2022/05/09 13:11:49;;;;;;;3.38;1.90;;;33.60;49.50;;;;;;5054906;28;20175;-74
2022/05/09 13:14:40;;;;;;;4.57;2.33;;;32.90;48.40;;;;;;5050339;28;20340;-73